Anchor Point, AK (99556)

12:59 AM AKDT on July 25, 2016 (GMT -0800)
Wilderness Greenhouse | | Change Station

Elev 335 ft 59.72 °N, 151.72 °W | Updated 1 minute ago

Light Rain
Light Rain
52.7 °F
Feels Like 52.7 °F
N
0.0
Wind Variable Wind from West

Today
High -- | Low -- °F
--% Chance of Precip.
Yesterday
High -- | Low -- °F
Precip. -- in
Pressure 29.67 in
Visibility 10.0 miles
Clouds Overcast 7000 ft
Dew Point 52 °F
Humidity 99%
Rainfall 0.03 in
Snow Depth Not available.
5:35 AM 10:50 PM
Waning Gibbous, 68% visible
METAR PAHO 250753Z AUTO 00000KT 10SM -RA OVC070 13/12 A2967 RMK RAE12B29 SLP047 P0001 T01330117 TSNO $ VIA AUTODIAL
Pressure 29.67 in
Visibility 10.0 miles
Clouds Overcast 7000 ft
Dew Point 52 °F
Humidity 99%
Rainfall 0.03 in
Snow Depth Not available.
5:35 AM 10:50 PM
Waning Gibbous, 68% visible
METAR PAHO 250753Z AUTO 00000KT 10SM -RA OVC070 13/12 A2967 RMK RAE12B29 SLP047 P0001 T01330117 TSNO $ VIA AUTODIAL

10-Day Weather Forecast

Almanac

Astronomy

Jul. 25, 2016 Rise Set
Actual Time
Civil Twilight
Nautical Twilight
Astronomical Twilight
Moon
Length of Visible Light
Length of Day
Tomorrow will be .
, % of the Moon is Illuminated

Today's Extremes

State Highs State Lows

Community

WunderPhotos

Upload Photos

1,927,274 photos uploaded!

WunderBlog® & News

Nearby

Air Quality

  Air Quality AQ Index Pollutant
Not available.

Snow Depth

Station Depth Elevation

Earthquake Activity

City Distance Mag. Time & Date
Minimum magnitude displayed is 2.5.

Coastal Water Temperatures

Place Temperature

Stations

Nearby Weather Stations

Station Location Temp. Windchill Dew Point Humidity Wind Precip. Elev Updated Type
                   

Watches & Warnings

There are currently no watches in effect.